Cuyahoga Falls, OH (44224)

4:04 AM EDT on September 01, 2015 (GMT -0400)
Baxter's Yard Cuyahoga Falls | | Change Station
CLOSE
Current Station
Personal Weather Station
Location: Cuyahoga Falls, OH
Elevation: 1020 ft
Nearby Weather Stations

Elev 1020 ft 41.15 °N, 81.47 °W | Updated 11 minutes ago

Clear
Clear
67.3 °F
Feels Like 67.3 °F
N
0.0
Wind Variable Wind from South

Today
High -- | Low -- °F
--% Chance of Precip.
Yesterday
High -- | Low -- °F
Precip. -- in
6:52 AM 7:58 PM
Waning Gibbous, 90% visible
Pressure 30.07 in
Visibility 6.0 miles
Clouds Clear
Dew Point 67 °F
Humidity 99%
Rainfall 0.00 in
Snow Depth Not available.
UV 0 out of 12
Pollen 10.70 out of 12
Air Quality Not available.
Flu Activity Not available.
METAR KAKR 010754Z AUTO 20003KT 6SM BR CLR 21/19 A3010 RMK AO2 SLP182 T02110189
Pressure 30.07 in
Visibility 6.0 miles
Clouds Clear
Dew Point 67 °F
Humidity 99%
Rainfall 0.00 in
Snow Depth Not available.
UV 0 out of 12
Pollen 10.70 out of 12
Air Quality Not available.
Flu Activity Not available.
METAR KAKR 010754Z AUTO 20003KT 6SM BR CLR 21/19 A3010 RMK AO2 SLP182 T02110189

10-Day Weather Forecast

×

Almanac

Astronomy

Sep. 01, 2015 Rise Set
Actual Time
Civil Twilight
Nautical Twilight
Astronomical Twilight
Moon
Length of Visible Light
Length of Day
Tomorrow will be .
, % of the Moon is Illuminated

Today's Extremes

State Highs State Lows

Community

WunderPhotos

Upload Photos

1,851,490 photos uploaded!

WunderBlogs® & News

Nearby

Air Quality

  Air Quality AQ Index Pollutant
Not available.

Snow Depth

Station Depth Elevation

Earthquake Activity

City Distance Mag. Time & Date
Minimum magnitude displayed is 2.5.

Coastal Water Temperatures

Place Temperature

Stations

Nearby Weather Stations

Station Location Temp. Windchill Dew Point Humidity Wind Precip. Elev Updated Type